createdAt,value
2022-11-08T00:01:46.535Z,100.00
2022-11-08T00:07:01.717Z,100.00
2022-11-08T00:12:16.811Z,100.00
2022-11-08T00:17:18.129Z,100.00
2022-11-08T00:22:15.370Z,100.00
2022-11-08T00:27:14.191Z,100.00
2022-11-08T00:32:15.927Z,100.00
2022-11-08T00:37:12.660Z,100.00
2022-11-08T00:42:09.620Z,100.00
2022-11-08T00:47:06.025Z,100.00
2022-11-08T00:52:02.451Z,100.00
2022-11-08T00:56:58.872Z,100.00
2022-11-08T01:01:55.292Z,100.00
2022-11-08T01:06:51.810Z,100.00
2022-11-08T01:11:48.286Z,100.00
2022-11-08T01:16:45.319Z,100.00
2022-11-08T01:21:41.652Z,100.00
2022-11-08T01:26:38.029Z,100.00
2022-11-08T01:31:34.524Z,100.00
2022-11-08T01:36:31.365Z,100.00
2022-11-08T01:41:27.873Z,100.00
2022-11-08T01:46:46.544Z,100.00
2022-11-08T01:51:53.888Z,100.00
2022-11-08T01:56:50.567Z,100.00
2022-11-08T02:01:48.316Z,100.00
2022-11-08T02:06:44.870Z,100.00
2022-11-08T02:11:42.034Z,100.00
2022-11-08T02:16:38.588Z,100.00
2022-11-08T02:21:42.428Z,100.00
2022-11-08T02:26:39.669Z,100.00
2022-11-08T02:31:36.378Z,100.00
2022-11-08T02:36:32.860Z,100.00
2022-11-08T02:41:29.269Z,100.00
2022-11-08T02:46:25.652Z,100.00
2022-11-08T02:51:22.030Z,100.00
2022-11-08T02:56:18.412Z,100.00
2022-11-08T03:01:15.148Z,100.00
2022-11-08T03:06:11.637Z,100.00
2022-11-08T03:11:08.029Z,100.00
2022-11-08T03:16:05.819Z,100.00
2022-11-08T03:21:02.197Z,100.00
2022-11-08T03:26:05.514Z,100.00
2022-11-08T03:31:01.995Z,100.00
2022-11-08T03:35:58.440Z,100.00
2022-11-08T03:40:54.829Z,100.00
2022-11-08T03:45:51.238Z,100.00
2022-11-08T03:50:47.591Z,100.00
2022-11-08T03:55:43.966Z,100.00
2022-11-08T04:00:41.023Z,100.00
2022-11-08T04:05:37.534Z,100.00
2022-11-08T04:10:34.511Z,100.00
2022-11-08T04:15:31.509Z,100.00
2022-11-08T04:20:46.855Z,100.00
2022-11-08T04:25:43.698Z,100.00
2022-11-08T04:30:40.077Z,100.00
2022-11-08T04:35:36.428Z,100.00
2022-11-08T04:40:32.781Z,100.00
2022-11-08T04:45:29.140Z,100.00
2022-11-08T04:50:25.598Z,100.00
2022-11-08T04:55:23.176Z,100.00
2022-11-08T05:00:19.538Z,100.00
2022-11-08T05:05:16.042Z,100.00
2022-11-08T05:10:12.459Z,100.00
2022-11-08T05:15:09.271Z,100.00
2022-11-08T05:20:24.912Z,100.00
2022-11-08T05:25:21.310Z,100.00
2022-11-08T05:30:18.017Z,100.00
2022-11-08T05:35:14.374Z,100.00
2022-11-08T05:40:11.715Z,100.00
2022-11-08T05:45:09.660Z,100.00
2022-11-08T05:50:06.545Z,100.00
2022-11-08T05:55:02.949Z,100.00
2022-11-08T05:59:59.473Z,100.00
2022-11-08T06:04:55.844Z,100.00
2022-11-08T06:09:52.251Z,100.00
2022-11-08T06:14:48.624Z,100.00
2022-11-08T06:19:45.086Z,100.00
2022-11-08T06:24:41.501Z,100.00
2022-11-08T06:29:37.935Z,100.00
2022-11-08T06:34:34.302Z,100.00
2022-11-08T06:39:30.901Z,100.00
2022-11-08T06:44:27.311Z,100.00
2022-11-08T06:49:24.119Z,100.00
2022-11-08T06:54:24.479Z,100.00
2022-11-08T06:59:23.147Z,100.00
2022-11-08T07:04:19.510Z,100.00
2022-11-08T07:09:16.055Z,100.00
2022-11-08T07:14:12.440Z,100.00
2022-11-08T07:19:08.805Z,100.00
2022-11-08T07:24:05.371Z,100.00
2022-11-08T07:29:01.755Z,100.00
2022-11-08T07:33:58.138Z,100.00
2022-11-08T07:38:54.784Z,100.00
2022-11-08T07:43:51.148Z,100.00
2022-11-08T07:48:47.774Z,100.00
2022-11-08T07:53:44.879Z,100.00
2022-11-08T07:58:41.405Z,100.00
2022-11-08T08:03:38.002Z,100.00
2022-11-08T08:08:34.359Z,100.00
2022-11-08T08:13:31.244Z,100.00
2022-11-08T08:18:28.928Z,100.00
2022-11-08T08:23:25.650Z,100.00
2022-11-08T08:28:22.041Z,100.00
2022-11-08T08:33:34.716Z,100.00
2022-11-08T08:38:32.976Z,100.00
2022-11-08T08:43:32.331Z,100.00
2022-11-08T08:48:29.260Z,100.00
2022-11-08T08:53:26.341Z,100.00
2022-11-08T08:58:23.237Z,100.00
2022-11-08T09:03:20.096Z,100.00
2022-11-08T09:08:17.244Z,100.00
2022-11-08T09:13:13.629Z,100.00
2022-11-08T09:18:10.618Z,100.00
2022-11-08T09:23:07.129Z,100.00
2022-11-08T09:28:04.080Z,100.00
2022-11-08T09:33:02.104Z,100.00
2022-11-08T09:38:00.106Z,100.00
2022-11-08T09:43:35.293Z,100.00
2022-11-08T09:48:36.030Z,100.00
2022-11-08T09:53:44.245Z,100.00
2022-11-08T09:59:02.520Z,100.00
2022-11-08T10:04:06.590Z,100.00
2022-11-08T10:09:31.742Z,100.00
2022-11-08T10:14:53.362Z,100.00
2022-11-08T10:19:58.454Z,100.00
2022-11-08T10:25:01.398Z,100.00
2022-11-08T10:30:03.289Z,100.00
2022-11-08T10:35:13.877Z,100.00
2022-11-08T10:40:25.139Z,100.00
2022-11-08T10:45:21.594Z,100.00
2022-11-08T10:50:22.271Z,100.00
2022-11-08T10:55:33.499Z,100.00
2022-11-08T11:00:32.715Z,100.00
2022-11-08T11:05:36.397Z,100.00
2022-11-08T11:10:53.231Z,100.00
2022-11-08T11:15:57.314Z,100.00
2022-11-08T11:21:02.693Z,100.00
2022-11-08T11:25:59.344Z,100.00
2022-11-08T11:31:01.437Z,100.00
2022-11-08T11:36:08.045Z,100.00
2022-11-08T11:41:24.708Z,100.00
2022-11-08T11:46:28.196Z,97.06
2022-11-08T11:51:27.370Z,97.69
2022-11-08T11:56:51.200Z,96.98
2022-11-08T12:02:02.631Z,97.42
2022-11-08T12:07:18.970Z,99.04
2022-11-08T12:12:41.603Z,98.25
2022-11-08T12:17:56.544Z,97.97
2022-11-08T12:22:59.040Z,98.83
2022-11-08T12:28:16.950Z,99.52
2022-11-08T12:33:36.472Z,98.86
2022-11-08T12:38:57.193Z,98.17
2022-11-08T12:44:11.211Z,95.79
2022-11-08T12:49:36.572Z,97.62
2022-11-08T12:54:39.148Z,89.76
2022-11-08T12:59:43.567Z,88.56
2022-11-08T13:04:42.979Z,87.55
2022-11-08T13:09:51.008Z,89.01
2022-11-08T13:14:47.874Z,90.21
2022-11-08T13:19:47.441Z,94.88
2022-11-08T13:24:45.405Z,96.04
2022-11-08T13:29:42.212Z,95.98
2022-11-08T13:35:20.140Z,98.84
2022-11-08T13:40:16.608Z,100.00
2022-11-08T13:45:28.484Z,100.00
2022-11-08T13:50:27.833Z,100.00
2022-11-08T13:55:42.422Z,100.00
2022-11-08T14:00:45.284Z,100.00
2022-11-08T14:05:48.403Z,100.00
2022-11-08T14:11:05.508Z,100.00
2022-11-08T14:16:11.697Z,100.00
2022-11-08T14:21:08.145Z,100.00
2022-11-08T14:26:13.544Z,100.00
2022-11-08T14:31:30.434Z,100.00
2022-11-08T14:36:29.425Z,100.00
2022-11-08T14:41:28.648Z,100.00
2022-11-08T14:46:32.974Z,100.00
2022-11-08T14:51:29.343Z,100.00
2022-11-08T14:56:27.578Z,100.00
2022-11-08T15:01:28.424Z,100.00
2022-11-08T15:06:43.105Z,100.00
2022-11-08T15:11:41.663Z,100.00
2022-11-08T15:16:46.745Z,100.00
2022-11-08T15:21:48.580Z,100.00
2022-11-08T15:27:13.169Z,100.00
2022-11-08T15:32:17.583Z,100.00
2022-11-08T15:37:32.045Z,100.00
2022-11-08T15:42:28.670Z,100.00
2022-11-08T15:47:41.594Z,100.00
2022-11-08T15:52:37.969Z,100.00
2022-11-08T15:57:40.764Z,100.00
2022-11-08T16:02:37.130Z,100.00
2022-11-08T16:07:33.489Z,100.00
2022-11-08T16:12:30.653Z,100.00
2022-11-08T16:17:27.169Z,100.00
2022-11-08T16:22:23.612Z,100.00
2022-11-08T16:27:19.993Z,100.00
2022-11-08T16:32:16.367Z,100.00
2022-11-08T16:37:13.065Z,100.00
2022-11-08T16:42:12.145Z,100.00
2022-11-08T16:47:16.883Z,100.00
2022-11-08T16:52:13.921Z,100.00
2022-11-08T17:02:31.173Z,100.00
2022-11-08T17:07:28.596Z,100.00
2022-11-08T17:12:25.044Z,100.00
2022-11-08T17:17:21.439Z,100.00
2022-11-08T17:22:17.795Z,100.00
2022-11-08T17:27:14.260Z,100.00
2022-11-08T17:32:10.607Z,100.00
2022-11-08T17:37:07.219Z,100.00
2022-11-08T17:42:03.763Z,100.00
2022-11-08T17:47:00.379Z,100.00
2022-11-08T17:51:56.741Z,100.00
2022-11-08T17:56:53.140Z,100.00
2022-11-08T18:01:50.606Z,100.00
2022-11-08T18:06:47.873Z,100.00
2022-11-08T18:11:47.712Z,100.00
2022-11-08T18:16:45.345Z,100.00
2022-11-08T18:21:41.753Z,100.00
2022-11-08T18:26:38.957Z,100.00
2022-11-08T18:31:35.319Z,100.00
2022-11-08T18:36:31.996Z,100.00
2022-11-08T18:41:31.638Z,100.00
2022-11-08T18:46:32.634Z,100.00
2022-11-08T18:51:29.105Z,100.00
2022-11-08T18:56:25.737Z,100.00
2022-11-08T19:01:22.202Z,100.00
2022-11-08T19:06:20.840Z,100.00
2022-11-08T19:11:21.320Z,100.00
2022-11-08T19:16:20.152Z,100.00
2022-11-08T19:21:22.161Z,100.00
2022-11-08T19:26:23.495Z,100.00
2022-11-08T19:31:21.886Z,100.00
2022-11-08T19:36:21.323Z,100.00
2022-11-08T19:41:20.251Z,100.00
2022-11-08T19:46:19.531Z,100.00
2022-11-08T19:51:19.303Z,100.00
2022-11-08T19:56:19.725Z,100.00
2022-11-08T20:01:17.742Z,100.00
2022-11-08T20:06:15.514Z,100.00
2022-11-08T20:11:13.943Z,100.00
2022-11-08T20:16:14.991Z,100.00
2022-11-08T20:21:12.811Z,100.00
2022-11-08T20:26:13.683Z,100.00
2022-11-08T20:31:13.782Z,100.00
2022-11-08T20:36:13.836Z,100.00
2022-11-08T20:41:12.416Z,100.00
2022-11-08T20:46:26.970Z,100.00
2022-11-08T20:51:23.468Z,100.00
2022-11-08T20:56:22.183Z,100.00
2022-11-08T21:01:21.377Z,100.00
2022-11-08T21:06:20.691Z,100.00
2022-11-08T21:11:17.737Z,100.00
2022-11-08T21:16:42.265Z,100.00
2022-11-08T21:21:32.971Z,100.00
2022-11-08T21:26:29.511Z,100.00
2022-11-08T21:31:25.904Z,100.00
2022-11-08T21:36:24.032Z,100.00
2022-11-08T21:41:20.834Z,100.00
2022-11-08T21:46:23.643Z,100.00
2022-11-08T21:51:20.299Z,100.00
2022-11-08T21:56:16.679Z,100.00
2022-11-08T22:01:13.102Z,100.00
2022-11-08T22:06:09.600Z,100.00
2022-11-08T22:11:06.353Z,100.00
2022-11-08T22:16:02.854Z,100.00
2022-11-08T22:21:17.616Z,100.00
2022-11-08T22:26:13.950Z,100.00
2022-11-08T22:31:10.253Z,100.00
2022-11-08T22:36:06.761Z,100.00
2022-11-08T22:41:03.649Z,100.00
2022-11-08T22:46:00.040Z,100.00
2022-11-08T22:50:57.144Z,100.00
2022-11-08T22:55:53.462Z,100.00
2022-11-08T23:00:50.190Z,100.00
2022-11-08T23:05:54.250Z,100.00
2022-11-08T23:11:09.533Z,100.00
2022-11-08T23:16:08.483Z,100.00
2022-11-08T23:21:23.624Z,100.00
2022-11-08T23:26:39.897Z,100.00
2022-11-08T23:31:36.262Z,100.00
2022-11-08T23:36:32.722Z,100.00
2022-11-08T23:41:47.457Z,100.00
2022-11-08T23:46:43.837Z,100.00
2022-11-08T23:51:40.145Z,100.00
2022-11-08T23:56:36.545Z,100.00
